createdAt,value
2019-02-06T00:01:04.969Z,13.10
2019-02-06T00:03:34.178Z,13.27
2019-02-06T00:06:02.076Z,13.40
2019-02-06T00:08:29.991Z,13.60
2019-02-06T00:10:57.921Z,13.33
2019-02-06T00:13:26.019Z,15.20
2019-02-06T00:15:54.203Z,14.33
2019-02-06T00:18:22.158Z,13.07
2019-02-06T00:20:50.219Z,14.00
2019-02-06T00:23:18.166Z,12.90
2019-02-06T00:25:46.091Z,13.17
2019-02-06T00:28:14.023Z,12.90
2019-02-06T00:30:41.999Z,13.07
2019-02-06T00:33:10.092Z,13.50
2019-02-06T00:35:37.961Z,13.23
2019-02-06T00:38:05.953Z,14.00
2019-02-06T00:40:33.889Z,13.70
2019-02-06T00:43:01.725Z,14.30
2019-02-06T00:45:29.664Z,13.93
2019-02-06T00:47:57.636Z,14.90
2019-02-06T00:50:25.481Z,13.73
2019-02-06T00:52:53.352Z,14.77
2019-02-06T00:55:21.293Z,12.63
2019-02-06T00:57:49.272Z,13.40
2019-02-06T01:00:20.896Z,13.73
2019-02-06T01:02:48.903Z,13.00
2019-02-06T01:05:17.316Z,11.70
2019-02-06T01:07:45.330Z,11.37
2019-02-06T01:10:13.692Z,12.50
2019-02-06T01:12:41.615Z,12.33
2019-02-06T01:15:10.136Z,12.00
2019-02-06T01:17:38.116Z,11.63
2019-02-06T01:20:06.325Z,11.73
2019-02-06T01:22:34.349Z,12.17
2019-02-06T01:25:02.389Z,12.03
2019-02-06T01:27:30.358Z,12.13
2019-02-06T01:29:58.272Z,12.10
2019-02-06T01:32:26.182Z,13.20
2019-02-06T01:34:54.048Z,12.07
2019-02-06T01:37:21.920Z,12.50
2019-02-06T01:39:50.224Z,12.70
2019-02-06T01:42:18.067Z,12.00
2019-02-06T01:44:45.949Z,11.63
2019-02-06T01:47:13.999Z,10.77
2019-02-06T01:49:44.752Z,10.83
2019-02-06T01:52:11.639Z,10.10
2019-02-06T01:54:39.644Z,11.03
2019-02-06T01:57:08.030Z,10.53
2019-02-06T01:59:35.895Z,11.30
2019-02-06T02:02:04.020Z,11.43
2019-02-06T02:04:32.905Z,11.50
2019-02-06T02:07:00.805Z,10.87
2019-02-06T02:09:28.861Z,10.20
2019-02-06T02:11:56.806Z,11.67
2019-02-06T02:14:25.041Z,11.20
2019-02-06T02:16:52.909Z,10.83
2019-02-06T02:19:20.781Z,11.57
2019-02-06T02:21:48.724Z,11.20
2019-02-06T02:24:17.952Z,10.30
2019-02-06T02:26:45.907Z,11.10
2019-02-06T02:29:13.766Z,12.07
2019-02-06T02:31:42.042Z,11.03
2019-02-06T02:34:10.048Z,13.87
2019-02-06T02:36:38.219Z,11.80
2019-02-06T02:39:07.450Z,11.10
2019-02-06T02:41:35.315Z,11.03
2019-02-06T02:44:03.182Z,11.83
2019-02-06T02:46:31.026Z,11.17
2019-02-06T02:48:58.884Z,10.70
2019-02-06T02:51:26.774Z,11.60
2019-02-06T02:53:54.683Z,11.17
2019-02-06T02:56:22.594Z,10.63
2019-02-06T02:58:50.650Z,10.87
2019-02-06T03:01:55.935Z,10.10
2019-02-06T03:04:30.594Z,10.80
2019-02-06T03:06:58.491Z,9.33
2019-02-06T03:09:26.332Z,9.70
2019-02-06T03:11:54.685Z,10.17
2019-02-06T03:14:22.613Z,10.97
2019-02-06T03:16:50.540Z,10.40
2019-02-06T03:19:18.381Z,10.07
2019-02-06T03:21:46.206Z,9.80
2019-02-06T03:24:14.063Z,10.93
2019-02-06T03:26:41.927Z,10.23
2019-02-06T03:29:10.134Z,11.93
2019-02-06T03:31:38.080Z,11.03
2019-02-06T03:34:05.926Z,10.93
2019-02-06T03:36:40.725Z,10.17
2019-02-06T03:39:04.504Z,10.90
2019-02-06T03:41:32.407Z,11.13
2019-02-06T03:44:00.278Z,11.70
2019-02-06T03:46:28.349Z,11.53
2019-02-06T03:48:56.204Z,12.00
2019-02-06T03:51:24.049Z,11.73
2019-02-06T03:53:51.936Z,10.93
2019-02-06T03:56:19.899Z,12.10
2019-02-06T03:58:47.761Z,12.00
2019-02-06T04:01:15.674Z,11.70
2019-02-06T04:03:43.841Z,11.83
2019-02-06T04:06:11.665Z,10.67
2019-02-06T04:08:39.555Z,12.43
2019-02-06T04:11:07.547Z,11.27
2019-02-06T04:13:35.390Z,11.10
2019-02-06T04:16:03.466Z,12.17
2019-02-06T04:18:31.458Z,12.10
2019-02-06T04:20:59.584Z,11.30
2019-02-06T04:23:27.499Z,11.33
2019-02-06T04:25:55.343Z,11.60
2019-02-06T04:28:23.302Z,11.37
2019-02-06T04:30:51.157Z,10.87
2019-02-06T04:33:19.059Z,11.43
2019-02-06T04:35:46.929Z,11.73
2019-02-06T04:38:15.090Z,10.67
2019-02-06T04:40:42.931Z,11.30
2019-02-06T04:43:10.778Z,11.47
2019-02-06T04:45:38.710Z,10.80
2019-02-06T04:48:06.588Z,12.00
2019-02-06T04:50:34.452Z,11.93
2019-02-06T04:53:02.337Z,12.40
2019-02-06T04:55:30.732Z,11.60
2019-02-06T04:57:58.693Z,10.80
2019-02-06T05:00:26.671Z,10.73
2019-02-06T05:02:54.554Z,11.17
2019-02-06T05:05:22.764Z,12.77
2019-02-06T05:07:50.687Z,11.80
2019-02-06T05:10:18.549Z,10.90
2019-02-06T05:12:46.899Z,11.27
2019-02-06T05:15:14.872Z,11.90
2019-02-06T05:17:42.753Z,12.00
2019-02-06T05:20:14.163Z,11.70
2019-02-06T05:22:42.021Z,11.60
2019-02-06T05:25:10.012Z,10.33
2019-02-06T05:27:39.730Z,11.70
2019-02-06T05:30:07.714Z,11.43
2019-02-06T05:32:35.633Z,11.50
2019-02-06T05:35:03.647Z,11.77
2019-02-06T05:37:32.529Z,11.93
2019-02-06T05:40:00.513Z,12.20
2019-02-06T05:42:28.376Z,11.27
2019-02-06T05:44:56.315Z,11.03
2019-02-06T05:47:24.392Z,11.50
2019-02-06T05:49:52.329Z,10.83
2019-02-06T05:52:20.209Z,12.30
2019-02-06T05:54:48.116Z,11.47
2019-02-06T05:57:16.080Z,10.70
2019-02-06T05:59:43.914Z,11.43
2019-02-06T06:02:11.894Z,12.00
2019-02-06T06:04:40.075Z,12.20
2019-02-06T06:07:07.950Z,11.13
2019-02-06T06:09:35.867Z,12.77
2019-02-06T06:12:03.769Z,11.87
2019-02-06T06:14:31.791Z,10.80
2019-02-06T06:16:59.772Z,11.80
2019-02-06T06:19:28.076Z,13.20
2019-02-06T06:21:56.154Z,12.73
2019-02-06T06:24:24.051Z,14.20
2019-02-06T06:26:52.377Z,12.53
2019-02-06T06:29:20.743Z,12.20
2019-02-06T06:31:48.731Z,13.37
2019-02-06T06:34:16.958Z,12.53
2019-02-06T06:36:44.938Z,12.97
2019-02-06T06:39:12.952Z,12.00
2019-02-06T06:41:41.072Z,12.70
2019-02-06T06:44:08.977Z,11.77
2019-02-06T06:46:36.948Z,11.80
2019-02-06T06:49:04.890Z,11.63
2019-02-06T06:51:32.756Z,11.60
2019-02-06T06:54:00.686Z,10.83
2019-02-06T06:56:28.661Z,12.17
2019-02-06T06:58:56.582Z,11.53
2019-02-06T07:01:24.727Z,10.93
2019-02-06T07:03:52.834Z,11.63
2019-02-06T07:06:20.867Z,11.50
2019-02-06T07:08:48.936Z,12.00
2019-02-06T07:11:16.967Z,12.33
2019-02-06T07:13:44.878Z,13.30
2019-02-06T07:16:12.715Z,11.00
2019-02-06T07:18:40.611Z,11.40
2019-02-06T07:21:08.797Z,11.23
2019-02-06T07:23:36.759Z,9.60
2019-02-06T07:26:04.789Z,9.87
2019-02-06T07:28:32.765Z,10.00
2019-02-06T07:31:01.177Z,10.27
2019-02-06T07:33:29.146Z,10.53
2019-02-06T07:35:57.123Z,10.50
2019-02-06T07:38:25.003Z,9.83
2019-02-06T07:40:53.122Z,9.77
2019-02-06T07:43:21.147Z,9.10
2019-02-06T07:45:49.174Z,8.87
2019-02-06T07:48:17.697Z,8.63
2019-02-06T07:50:45.823Z,8.83
2019-02-06T07:53:13.698Z,9.30
2019-02-06T07:55:41.588Z,8.80
2019-02-06T07:58:09.460Z,9.50
2019-02-06T08:00:37.617Z,9.70
2019-02-06T08:03:05.897Z,10.10
2019-02-06T08:05:34.471Z,9.10
2019-02-06T08:08:02.364Z,10.13
2019-02-06T08:10:31.447Z,10.37
2019-02-06T08:12:59.696Z,10.90
2019-02-06T08:15:27.706Z,10.90
2019-02-06T08:17:55.935Z,11.03
2019-02-06T08:20:24.346Z,11.00
2019-02-06T08:22:52.919Z,10.77
2019-02-06T08:25:21.588Z,12.30
2019-02-06T08:27:49.782Z,12.00
2019-02-06T08:30:18.981Z,12.10
2019-02-06T08:32:47.328Z,12.37
2019-02-06T08:35:15.334Z,12.87
2019-02-06T08:37:43.393Z,14.57
2019-02-06T08:40:11.487Z,14.43
2019-02-06T08:42:39.422Z,15.17
2019-02-06T08:45:07.729Z,15.57
2019-02-06T08:47:35.814Z,16.03
2019-02-06T08:50:04.269Z,17.63
2019-02-06T08:52:32.491Z,18.70
2019-02-06T08:55:00.599Z,17.63
2019-02-06T08:57:28.565Z,19.27
2019-02-06T08:59:56.672Z,21.10
2019-02-06T09:02:24.628Z,18.03
2019-02-06T09:04:56.044Z,19.43
2019-02-06T09:07:22.613Z,20.00
2019-02-06T09:09:50.585Z,22.23
2019-02-06T09:12:18.977Z,21.37
2019-02-06T09:14:47.102Z,19.10
2019-02-06T09:17:15.106Z,22.60
2019-02-06T09:19:43.142Z,22.40
2019-02-06T09:22:14.197Z,20.03
2019-02-06T09:24:42.386Z,21.43
2019-02-06T09:27:11.505Z,22.00
2019-02-06T09:29:39.738Z,20.77
2019-02-06T09:32:07.815Z,20.67
2019-02-06T09:34:35.705Z,20.07
2019-02-06T09:37:05.162Z,20.50
2019-02-06T09:39:33.345Z,20.03
2019-02-06T09:42:01.366Z,20.97
2019-02-06T09:44:29.290Z,21.80
2019-02-06T09:46:57.492Z,22.47
2019-02-06T09:49:25.491Z,19.73
2019-02-06T09:51:53.494Z,19.93
2019-02-06T09:54:21.383Z,20.43
2019-02-06T09:56:50.719Z,19.40
2019-02-06T09:59:19.015Z,21.10
2019-02-06T10:01:46.904Z,20.90
2019-02-06T10:04:15.093Z,21.00
2019-02-06T10:06:43.180Z,22.10
2019-02-06T10:09:22.696Z,20.57
2019-02-06T10:11:41.960Z,21.60
2019-02-06T10:14:09.911Z,21.70
2019-02-06T10:16:38.402Z,21.53
2019-02-06T10:19:06.598Z,20.83
2019-02-06T10:21:34.557Z,22.10
2019-02-06T10:24:02.574Z,21.00
2019-02-06T10:26:30.737Z,19.90
2019-02-06T10:28:58.773Z,20.43
2019-02-06T10:31:26.815Z,21.93
2019-02-06T10:33:54.826Z,20.47
2019-02-06T10:36:23.275Z,21.73
2019-02-06T10:38:51.373Z,22.80
2019-02-06T10:41:19.468Z,22.07
2019-02-06T10:43:47.464Z,22.10
2019-02-06T10:46:18.169Z,21.13
2019-02-06T10:48:45.195Z,20.23
2019-02-06T10:51:13.243Z,20.33
2019-02-06T10:53:41.883Z,21.13
2019-02-06T10:56:09.838Z,19.60
2019-02-06T10:58:37.787Z,21.30
2019-02-06T11:01:05.868Z,21.40
2019-02-06T11:03:33.899Z,22.73
2019-02-06T11:06:01.883Z,21.20
2019-02-06T11:08:29.789Z,20.00
2019-02-06T11:10:58.374Z,20.93
2019-02-06T11:13:26.719Z,21.83
2019-02-06T11:15:54.728Z,22.37
2019-02-06T11:18:22.744Z,20.90
2019-02-06T11:20:50.592Z,20.33
2019-02-06T11:23:18.885Z,20.33
2019-02-06T11:25:46.776Z,20.70
2019-02-06T11:28:15.262Z,21.90
2019-02-06T11:30:43.787Z,20.87
2019-02-06T11:33:11.712Z,20.80
2019-02-06T11:35:39.702Z,19.70
2019-02-06T11:38:07.812Z,20.57
2019-02-06T11:40:35.856Z,22.80
2019-02-06T11:43:04.027Z,20.37
2019-02-06T11:45:32.541Z,21.53
2019-02-06T11:48:00.962Z,21.30
2019-02-06T11:50:54.379Z,22.80
2019-02-06T11:53:26.391Z,22.47
2019-02-06T11:55:54.343Z,21.83
2019-02-06T11:58:22.305Z,21.43
2019-02-06T12:00:59.843Z,21.27
2019-02-06T12:03:28.059Z,21.77
2019-02-06T12:05:56.347Z,19.70
2019-02-06T12:08:24.517Z,19.80
2019-02-06T12:10:52.629Z,19.50
2019-02-06T12:13:20.745Z,17.80
2019-02-06T12:15:52.106Z,20.40
2019-02-06T12:18:20.022Z,18.50
2019-02-06T12:20:47.930Z,20.53
2019-02-06T12:23:16.268Z,19.77
2019-02-06T12:25:44.706Z,18.00
2019-02-06T12:28:12.619Z,18.77
2019-02-06T12:30:40.524Z,17.97
2019-02-06T12:33:08.548Z,19.17
2019-02-06T12:35:36.503Z,18.20
2019-02-06T12:38:04.600Z,19.60
2019-02-06T12:40:33.261Z,17.77
2019-02-06T12:43:06.128Z,18.80
2019-02-06T12:45:34.500Z,20.37
2019-02-06T12:48:02.695Z,19.40
2019-02-06T12:50:34.392Z,19.30
2019-02-06T12:53:02.455Z,20.07
2019-02-06T12:55:31.811Z,17.43
2019-02-06T12:58:00.379Z,17.60
2019-02-06T13:00:29.282Z,17.30
2019-02-06T13:02:59.943Z,17.43
2019-02-06T13:05:27.451Z,16.60
2019-02-06T13:07:55.492Z,17.00
2019-02-06T13:10:33.383Z,17.67
2019-02-06T13:12:54.013Z,17.83
2019-02-06T13:15:21.962Z,16.13
2019-02-06T13:17:50.306Z,16.23
2019-02-06T13:20:21.120Z,15.47
2019-02-06T13:22:49.572Z,15.70
2019-02-06T13:25:17.617Z,17.00
2019-02-06T13:27:45.563Z,15.30
2019-02-06T13:30:17.793Z,18.03
2019-02-06T13:32:46.046Z,18.83
2019-02-06T13:35:15.320Z,17.50
2019-02-06T13:37:43.323Z,18.33
2019-02-06T13:40:12.934Z,19.60
2019-02-06T13:42:40.946Z,18.60
2019-02-06T13:45:10.635Z,20.40
2019-02-06T13:47:38.865Z,17.93
2019-02-06T13:50:08.238Z,18.60
2019-02-06T13:52:36.473Z,18.80
2019-02-06T13:55:04.863Z,20.77
2019-02-06T13:57:34.183Z,21.23
2019-02-06T14:00:02.550Z,20.00
2019-02-06T14:02:30.451Z,21.03
2019-02-06T14:04:59.168Z,19.47
2019-02-06T14:07:27.288Z,20.60
2019-02-06T14:09:55.219Z,18.90
2019-02-06T14:12:23.116Z,19.80
2019-02-06T14:14:51.033Z,20.77
2019-02-06T14:17:20.239Z,21.70
2019-02-06T14:19:48.143Z,19.63
2019-02-06T14:22:16.363Z,20.23
2019-02-06T14:24:49.707Z,18.60
2019-02-06T14:27:30.076Z,20.90
2019-02-06T14:30:16.363Z,20.10
2019-02-06T14:33:12.834Z,19.87
2019-02-06T14:35:44.968Z,19.10
2019-02-06T14:38:30.526Z,19.67
2019-02-06T14:41:19.767Z,20.13
2019-02-06T14:43:52.690Z,19.87
2019-02-06T14:46:46.364Z,20.17
2019-02-06T14:49:32.127Z,18.77
2019-02-06T14:52:25.403Z,18.63
2019-02-06T14:55:12.443Z,20.83
2019-02-06T14:58:02.690Z,21.33
2019-02-06T15:00:37.545Z,20.97
2019-02-06T15:03:19.400Z,20.03
2019-02-06T15:05:57.778Z,20.13
2019-02-06T15:08:33.121Z,19.80
2019-02-06T15:11:19.941Z,19.10
2019-02-06T15:14:17.057Z,21.23
2019-02-06T15:17:10.112Z,19.60
2019-02-06T15:20:03.894Z,19.63
2019-02-06T15:23:03.172Z,20.30
2019-02-06T15:25:50.119Z,20.83
2019-02-06T15:28:35.748Z,18.30
2019-02-06T15:31:22.419Z,18.83
2019-02-06T15:33:54.325Z,19.80
2019-02-06T15:36:25.763Z,19.90
2019-02-06T15:39:11.358Z,19.77
2019-02-06T15:41:54.016Z,19.27
2019-02-06T15:44:41.196Z,20.47
2019-02-06T15:47:16.526Z,20.10
2019-02-06T15:50:02.426Z,21.03
2019-02-06T15:52:49.556Z,21.77
2019-02-06T15:55:36.653Z,20.27
2019-02-06T15:58:22.649Z,20.37
2019-02-06T16:00:57.891Z,19.33
2019-02-06T16:04:01.591Z,17.90
2019-02-06T16:06:56.296Z,19.30
2019-02-06T16:09:40.305Z,20.70
2019-02-06T16:12:15.966Z,19.60
2019-02-06T16:15:02.449Z,19.90
2019-02-06T16:17:49.963Z,18.50
2019-02-06T16:20:49.593Z,20.83
2019-02-06T16:23:26.729Z,19.77
2019-02-06T16:25:59.505Z,21.10
2019-02-06T16:28:32.665Z,20.20
2019-02-06T16:31:15.271Z,21.17
2019-02-06T16:34:02.005Z,20.80
2019-02-06T16:36:55.400Z,19.83
2019-02-06T16:39:29.234Z,20.83
2019-02-06T16:42:22.320Z,22.30
2019-02-06T16:45:04.778Z,20.80
2019-02-06T16:47:45.763Z,20.13
2019-02-06T16:50:21.217Z,20.53
2019-02-06T16:53:11.304Z,21.60
2019-02-06T16:55:57.268Z,19.53
2019-02-06T16:58:36.661Z,20.60
2019-02-06T17:01:43.044Z,20.60
2019-02-06T17:04:31.697Z,21.00
2019-02-06T17:07:17.484Z,21.13
2019-02-06T17:10:07.602Z,20.73
2019-02-06T17:13:03.537Z,20.10
2019-02-06T17:15:51.570Z,21.47
2019-02-06T17:18:38.617Z,21.17
2019-02-06T17:21:14.279Z,22.80
2019-02-06T17:24:10.180Z,22.17
2019-02-06T17:26:58.545Z,20.30
2019-02-06T17:29:51.412Z,22.40
2019-02-06T17:32:44.281Z,20.40
2019-02-06T17:35:21.149Z,22.83
2019-02-06T17:38:11.291Z,23.13
2019-02-06T17:41:10.687Z,23.30
2019-02-06T17:43:48.053Z,22.87
2019-02-06T17:46:44.875Z,23.23
2019-02-06T17:49:34.656Z,21.50
2019-02-06T17:52:08.043Z,23.27
2019-02-06T17:54:54.093Z,22.80
2019-02-06T17:57:22.019Z,23.10
2019-02-06T17:59:49.982Z,21.10
2019-02-06T18:02:19.056Z,26.30
2019-02-06T18:04:47.747Z,26.27
2019-02-06T18:07:15.815Z,23.80
2019-02-06T18:09:44.103Z,23.77
2019-02-06T18:12:12.562Z,24.67
2019-02-06T18:14:40.621Z,25.10
2019-02-06T18:17:08.605Z,23.07
2019-02-06T18:19:37.766Z,28.37
2019-02-06T18:22:06.271Z,28.60
2019-02-06T18:24:34.359Z,26.00
2019-02-06T18:27:05.094Z,26.23
2019-02-06T18:29:34.151Z,26.77
2019-02-06T18:32:02.265Z,24.60
2019-02-06T18:34:30.537Z,24.40
2019-02-06T18:36:58.931Z,23.57
2019-02-06T18:39:27.459Z,25.47
2019-02-06T18:41:55.699Z,22.37
2019-02-06T18:44:25.256Z,23.03
2019-02-06T18:46:55.015Z,21.60
2019-02-06T18:49:23.759Z,23.87
2019-02-06T18:51:51.980Z,23.17
2019-02-06T18:54:20.160Z,21.23
2019-02-06T18:56:48.814Z,22.67
2019-02-06T18:59:20.859Z,21.80
2019-02-06T19:01:49.188Z,21.60
2019-02-06T19:04:18.837Z,21.33
2019-02-06T19:06:47.878Z,21.57
2019-02-06T19:09:17.015Z,21.50
2019-02-06T19:11:45.311Z,21.00
2019-02-06T19:14:14.130Z,21.10
2019-02-06T19:16:42.511Z,21.80
2019-02-06T19:19:10.833Z,22.63
2019-02-06T19:21:39.231Z,23.03
2019-02-06T19:24:07.482Z,21.43
2019-02-06T19:26:36.017Z,21.50
2019-02-06T19:29:04.557Z,21.10
2019-02-06T19:31:32.935Z,23.03
2019-02-06T19:34:01.796Z,21.90
2019-02-06T19:36:30.091Z,25.73
2019-02-06T19:38:58.299Z,24.77
2019-02-06T19:41:26.568Z,24.30
2019-02-06T19:43:55.231Z,25.37
2019-02-06T19:46:23.282Z,22.80
2019-02-06T19:48:51.422Z,23.07
2019-02-06T19:51:19.611Z,23.93
2019-02-06T19:53:48.172Z,21.30
2019-02-06T19:56:16.380Z,21.70
2019-02-06T19:58:44.724Z,22.53
2019-02-06T20:01:13.019Z,22.30
2019-02-06T20:03:41.508Z,20.90
2019-02-06T20:06:28.321Z,19.53
2019-02-06T20:08:57.595Z,18.93
2019-02-06T20:11:25.966Z,19.40
2019-02-06T20:13:54.155Z,20.00
2019-02-06T20:16:22.338Z,19.80
2019-02-06T20:18:50.265Z,20.93
2019-02-06T20:21:18.222Z,21.13
2019-02-06T20:23:46.345Z,21.90
2019-02-06T20:26:14.315Z,19.43
2019-02-06T20:28:42.304Z,20.73
2019-02-06T20:31:10.247Z,20.17
2019-02-06T20:33:38.464Z,20.37
2019-02-06T20:36:06.336Z,22.10
2019-02-06T20:38:34.271Z,20.90
2019-02-06T20:41:02.230Z,20.23
2019-02-06T20:43:30.669Z,19.60
2019-02-06T20:45:59.032Z,20.27
2019-02-06T20:48:26.915Z,19.80
2019-02-06T20:50:54.999Z,19.43
2019-02-06T20:53:23.059Z,19.80
2019-02-06T20:55:50.993Z,20.40
2019-02-06T20:58:19.293Z,19.23
2019-02-06T21:00:47.207Z,20.63
2019-02-06T21:03:15.424Z,19.60
2019-02-06T21:05:43.823Z,20.90
2019-02-06T21:08:11.776Z,20.27
2019-02-06T21:10:39.772Z,20.67
2019-02-06T21:13:07.592Z,19.60
2019-02-06T21:15:35.600Z,19.47
2019-02-06T21:18:03.580Z,20.60
2019-02-06T21:20:31.724Z,20.37
2019-02-06T21:23:00.036Z,19.70
2019-02-06T21:25:27.972Z,20.50
2019-02-06T21:27:55.962Z,20.50
2019-02-06T21:30:24.732Z,21.30
2019-02-06T21:32:52.626Z,22.70
2019-02-06T21:35:20.723Z,22.93
2019-02-06T21:37:48.669Z,22.20
2019-02-06T21:40:21.091Z,21.30
2019-02-06T21:42:49.206Z,22.20
2019-02-06T21:45:17.122Z,23.67
2019-02-06T21:47:45.045Z,23.20
2019-02-06T21:50:13.960Z,21.67
2019-02-06T21:52:41.840Z,21.67
2019-02-06T21:55:10.562Z,21.37
2019-02-06T21:57:38.555Z,20.80
2019-02-06T22:00:09.463Z,19.43
2019-02-06T22:02:37.347Z,19.63
2019-02-06T22:05:05.257Z,18.87
2019-02-06T22:07:33.102Z,19.20
2019-02-06T22:10:01.857Z,20.37
2019-02-06T22:12:29.805Z,20.60
2019-02-06T22:14:57.655Z,19.13
2019-02-06T22:17:25.492Z,19.17
2019-02-06T22:19:53.409Z,18.20
2019-02-06T22:22:21.305Z,19.07
2019-02-06T22:24:49.230Z,19.80
2019-02-06T22:27:17.269Z,19.23
2019-02-06T22:29:45.379Z,18.30
2019-02-06T22:32:13.251Z,19.47
2019-02-06T22:34:41.126Z,19.53
2019-02-06T22:37:09.053Z,19.20
2019-02-06T22:39:36.945Z,20.27
2019-02-06T22:42:05.249Z,20.17
2019-02-06T22:44:33.701Z,19.20
2019-02-06T22:47:01.538Z,18.60
2019-02-06T22:49:29.393Z,19.10
2019-02-06T22:51:57.302Z,20.70
2019-02-06T22:54:25.203Z,19.90
2019-02-06T22:56:53.099Z,20.03
2019-02-06T22:59:21.004Z,19.50
2019-02-06T23:01:50.717Z,19.60
2019-02-06T23:04:18.625Z,18.50
2019-02-06T23:06:47.449Z,18.70
2019-02-06T23:09:15.311Z,19.03
2019-02-06T23:11:43.470Z,20.10
2019-02-06T23:14:17.759Z,19.50
2019-02-06T23:16:41.065Z,18.83
2019-02-06T23:19:09.000Z,20.07
2019-02-06T23:21:36.929Z,18.87
2019-02-06T23:24:04.807Z,21.67
2019-02-06T23:26:32.681Z,22.60
2019-02-06T23:29:00.550Z,23.10
2019-02-06T23:31:28.397Z,21.40
2019-02-06T23:33:56.586Z,20.60
2019-02-06T23:36:24.531Z,21.10
2019-02-06T23:38:52.468Z,21.20
2019-02-06T23:41:20.410Z,20.60
2019-02-06T23:43:48.359Z,19.87
2019-02-06T23:46:16.278Z,20.73
2019-02-06T23:48:44.235Z,20.80
2019-02-06T23:51:12.263Z,21.67
2019-02-06T23:53:40.122Z,19.17
2019-02-06T23:56:08.019Z,19.27
2019-02-06T23:58:35.939Z,19.87
